sensor_id;sensor_type;location;lat;lon;timestamp;P1;durP1;ratioP1;P2;durP2;ratioP2
1000;SDS011;489;47.806;12.858;2022-11-20T00:00:18;4.70;;;1.70;;
1000;SDS011;489;47.806;12.858;2022-11-20T00:02:20;2.30;;;1.43;;
1000;SDS011;489;47.806;12.858;2022-11-20T00:04:22;1.20;;;1.10;;
1000;SDS011;489;47.806;12.858;2022-11-20T00:06:24;1.40;;;1.30;;
1000;SDS011;489;47.806;12.858;2022-11-20T00:08:27;2.00;;;1.77;;
1000;SDS011;489;47.806;12.858;2022-11-20T00:10:28;1.73;;;1.60;;
1000;SDS011;489;47.806;12.858;2022-11-20T00:12:31;2.03;;;1.43;;
1000;SDS011;489;47.806;12.858;2022-11-20T00:14:33;1.70;;;1.60;;
1000;SDS011;489;47.806;12.858;2022-11-20T00:16:35;1.60;;;1.50;;
1000;SDS011;489;47.806;12.858;2022-11-20T00:18:36;1.97;;;1.77;;
1000;SDS011;489;47.806;12.858;2022-11-20T00:20:38;1.77;;;1.40;;
1000;SDS011;489;47.806;12.858;2022-11-20T00:22:40;1.20;;;1.10;;
1000;SDS011;489;47.806;12.858;2022-11-20T00:24:42;1.63;;;1.30;;
1000;SDS011;489;47.806;12.858;2022-11-20T00:26:43;1.47;;;1.37;;
1000;SDS011;489;47.806;12.858;2022-11-20T00:28:50;1.33;;;1.23;;
1000;SDS011;489;47.806;12.858;2022-11-20T00:30:52;2.20;;;1.43;;
1000;SDS011;489;47.806;12.858;2022-11-20T00:32:56;1.50;;;1.40;;
1000;SDS011;489;47.806;12.858;2022-11-20T00:34:58;1.53;;;1.43;;
1000;SDS011;489;47.806;12.858;2022-11-20T00:36:59;1.90;;;1.40;;
1000;SDS011;489;47.806;12.858;2022-11-20T00:39:01;1.33;;;1.23;;
1000;SDS011;489;47.806;12.858;2022-11-20T00:41:04;1.97;;;1.77;;
1000;SDS011;489;47.806;12.858;2022-11-20T00:43:06;1.57;;;1.37;;
1000;SDS011;489;47.806;12.858;2022-11-20T00:45:09;1.30;;;1.20;;
1000;SDS011;489;47.806;12.858;2022-11-20T00:47:11;1.60;;;1.50;;
1000;SDS011;489;47.806;12.858;2022-11-20T00:49:13;1.20;;;1.10;;
1000;SDS011;489;47.806;12.858;2022-11-20T00:51:16;1.30;;;1.20;;
1000;SDS011;489;47.806;12.858;2022-11-20T00:53:20;1.20;;;1.10;;
1000;SDS011;489;47.806;12.858;2022-11-20T00:55:22;1.63;;;1.50;;
1000;SDS011;489;47.806;12.858;2022-11-20T00:57:24;1.60;;;1.50;;
1000;SDS011;489;47.806;12.858;2022-11-20T00:59:25;1.57;;;1.27;;
1000;SDS011;489;47.806;12.858;2022-11-20T01:01:29;1.60;;;1.50;;
1000;SDS011;489;47.806;12.858;2022-11-20T01:03:31;1.27;;;1.13;;
1000;SDS011;489;47.806;12.858;2022-11-20T01:05:34;1.60;;;1.50;;
1000;SDS011;489;47.806;12.858;2022-11-20T01:07:35;1.37;;;1.27;;
1000;SDS011;489;47.806;12.858;2022-11-20T01:09:37;1.43;;;1.33;;
1000;SDS011;489;47.806;12.858;2022-11-20T01:11:39;2.23;;;1.43;;
1000;SDS011;489;47.806;12.858;2022-11-20T01:13:43;2.07;;;1.40;;
1000;SDS011;489;47.806;12.858;2022-11-20T01:15:45;1.60;;;1.50;;
1000;SDS011;489;47.806;12.858;2022-11-20T01:17:48;1.50;;;1.40;;
1000;SDS011;489;47.806;12.858;2022-11-20T01:19:50;1.20;;;1.20;;
1000;SDS011;489;47.806;12.858;2022-11-20T01:21:52;1.90;;;1.80;;
1000;SDS011;489;47.806;12.858;2022-11-20T01:23:55;2.43;;;1.93;;
1000;SDS011;489;47.806;12.858;2022-11-20T01:25:57;1.80;;;1.50;;
1000;SDS011;489;47.806;12.858;2022-11-20T01:28:01;1.67;;;1.57;;
1000;SDS011;489;47.806;12.858;2022-11-20T01:30:03;1.47;;;1.37;;
1000;SDS011;489;47.806;12.858;2022-11-20T01:32:05;1.67;;;1.57;;
1000;SDS011;489;47.806;12.858;2022-11-20T01:34:10;1.90;;;1.80;;
1000;SDS011;489;47.806;12.858;2022-11-20T01:36:13;2.03;;;1.83;;
1000;SDS011;489;47.806;12.858;2022-11-20T01:38:16;2.90;;;1.93;;
1000;SDS011;489;47.806;12.858;2022-11-20T01:40:18;2.33;;;2.10;;
1000;SDS011;489;47.806;12.858;2022-11-20T01:42:20;2.10;;;1.90;;
1000;SDS011;489;47.806;12.858;2022-11-20T01:44:43;2.83;;;2.10;;
1000;SDS011;489;47.806;12.858;2022-11-20T01:46:52;1.93;;;1.80;;
1000;SDS011;489;47.806;12.858;2022-11-20T01:48:57;2.20;;;1.70;;
1000;SDS011;489;47.806;12.858;2022-11-20T01:51:02;1.60;;;1.50;;
1000;SDS011;489;47.806;12.858;2022-11-20T01:53:06;3.00;;;1.70;;
1000;SDS011;489;47.806;12.858;2022-11-20T01:55:10;1.73;;;1.60;;
1000;SDS011;489;47.806;12.858;2022-11-20T01:57:14;1.60;;;1.50;;
1000;SDS011;489;47.806;12.858;2022-11-20T01:59:17;1.30;;;1.20;;
1000;SDS011;489;47.806;12.858;2022-11-20T02:01:20;2.80;;;1.80;;
1000;SDS011;489;47.806;12.858;2022-11-20T02:03:22;1.40;;;1.30;;
1000;SDS011;489;47.806;12.858;2022-11-20T02:05:25;1.90;;;1.70;;
1000;SDS011;489;47.806;12.858;2022-11-20T02:07:31;2.10;;;1.90;;
1000;SDS011;489;47.806;12.858;2022-11-20T02:09:33;1.47;;;1.37;;
1000;SDS011;489;47.806;12.858;2022-11-20T02:11:34;2.20;;;2.00;;
1000;SDS011;489;47.806;12.858;2022-11-20T02:13:36;1.40;;;1.30;;
1000;SDS011;489;47.806;12.858;2022-11-20T02:15:43;3.33;;;1.90;;
1000;SDS011;489;47.806;12.858;2022-11-20T02:17:45;2.10;;;1.47;;
1000;SDS011;489;47.806;12.858;2022-11-20T02:19:47;1.53;;;1.43;;
1000;SDS011;489;47.806;12.858;2022-11-20T02:21:49;1.33;;;1.23;;
1000;SDS011;489;47.806;12.858;2022-11-20T02:24:01;1.67;;;1.57;;
1000;SDS011;489;47.806;12.858;2022-11-20T02:26:09;1.83;;;1.60;;
1000;SDS011;489;47.806;12.858;2022-11-20T02:28:13;1.83;;;1.67;;
1000;SDS011;489;47.806;12.858;2022-11-20T02:30:15;1.50;;;1.40;;
1000;SDS011;489;47.806;12.858;2022-11-20T02:32:18;1.67;;;1.57;;
1000;SDS011;489;47.806;12.858;2022-11-20T02:34:20;1.63;;;1.43;;
1000;SDS011;489;47.806;12.858;2022-11-20T02:36:22;2.23;;;1.90;;
1000;SDS011;489;47.806;12.858;2022-11-20T02:38:25;2.90;;;1.77;;
1000;SDS011;489;47.806;12.858;2022-11-20T02:40:29;1.53;;;1.43;;
1000;SDS011;489;47.806;12.858;2022-11-20T02:42:30;1.70;;;1.60;;
1000;SDS011;489;47.806;12.858;2022-11-20T02:44:32;1.87;;;1.77;;
1000;SDS011;489;47.806;12.858;2022-11-20T02:46:34;1.47;;;1.37;;
1000;SDS011;489;47.806;12.858;2022-11-20T02:48:36;1.67;;;1.53;;
1000;SDS011;489;47.806;12.858;2022-11-20T02:50:38;2.10;;;1.90;;
1000;SDS011;489;47.806;12.858;2022-11-20T02:52:40;1.70;;;1.57;;
1000;SDS011;489;47.806;12.858;2022-11-20T02:54:42;2.37;;;1.30;;
1000;SDS011;489;47.806;12.858;2022-11-20T02:56:45;1.73;;;1.60;;
1000;SDS011;489;47.806;12.858;2022-11-20T02:58:47;1.77;;;1.67;;
1000;SDS011;489;47.806;12.858;2022-11-20T03:00:49;1.70;;;1.60;;
1000;SDS011;489;47.806;12.858;2022-11-20T03:02:50;1.90;;;1.70;;
1000;SDS011;489;47.806;12.858;2022-11-20T03:04:52;2.00;;;1.80;;
1000;SDS011;489;47.806;12.858;2022-11-20T03:06:54;1.63;;;1.53;;
1000;SDS011;489;47.806;12.858;2022-11-20T03:08:56;1.97;;;1.87;;
1000;SDS011;489;47.806;12.858;2022-11-20T03:11:01;2.13;;;1.80;;
1000;SDS011;489;47.806;12.858;2022-11-20T03:13:05;2.63;;;1.70;;
1000;SDS011;489;47.806;12.858;2022-11-20T03:15:08;1.83;;;1.70;;
1000;SDS011;489;47.806;12.858;2022-11-20T03:17:10;2.20;;;2.00;;
1000;SDS011;489;47.806;12.858;2022-11-20T03:19:12;2.43;;;1.80;;
1000;SDS011;489;47.806;12.858;2022-11-20T03:21:14;2.07;;;1.90;;
1000;SDS011;489;47.806;12.858;2022-11-20T03:23:16;1.93;;;1.83;;
1000;SDS011;489;47.806;12.858;2022-11-20T03:25:18;2.10;;;1.83;;
1000;SDS011;489;47.806;12.858;2022-11-20T03:27:20;2.27;;;1.70;;
1000;SDS011;489;47.806;12.858;2022-11-20T03:29:23;2.33;;;1.80;;
1000;SDS011;489;47.806;12.858;2022-11-20T03:31:25;1.70;;;1.60;;
1000;SDS011;489;47.806;12.858;2022-11-20T03:33:28;1.60;;;1.50;;
1000;SDS011;489;47.806;12.858;2022-11-20T03:35:29;1.53;;;1.43;;
1000;SDS011;489;47.806;12.858;2022-11-20T03:37:31;2.00;;;1.77;;
1000;SDS011;489;47.806;12.858;2022-11-20T03:39:33;2.40;;;1.60;;
1000;SDS011;489;47.806;12.858;2022-11-20T03:41:35;2.23;;;2.03;;
1000;SDS011;489;47.806;12.858;2022-11-20T03:43:38;2.07;;;1.50;;
1000;SDS011;489;47.806;12.858;2022-11-20T03:45:41;2.20;;;2.00;;
1000;SDS011;489;47.806;12.858;2022-11-20T03:47:43;1.67;;;1.57;;
1000;SDS011;489;47.806;12.858;2022-11-20T03:49:45;1.87;;;1.77;;
1000;SDS011;489;47.806;12.858;2022-11-20T03:51:47;2.27;;;2.07;;
1000;SDS011;489;47.806;12.858;2022-11-20T03:53:49;2.43;;;1.90;;
1000;SDS011;489;47.806;12.858;2022-11-20T03:55:51;1.77;;;1.67;;
1000;SDS011;489;47.806;12.858;2022-11-20T03:57:53;2.30;;;1.80;;
1000;SDS011;489;47.806;12.858;2022-11-20T03:59:55;1.93;;;1.77;;
1000;SDS011;489;47.806;12.858;2022-11-20T04:01:58;1.93;;;1.83;;
1000;SDS011;489;47.806;12.858;2022-11-20T04:04:00;1.77;;;1.67;;
1000;SDS011;489;47.806;12.858;2022-11-20T04:06:03;2.00;;;1.80;;
1000;SDS011;489;47.806;12.858;2022-11-20T04:08:05;2.17;;;1.97;;
1000;SDS011;489;47.806;12.858;2022-11-20T04:10:07;1.93;;;1.83;;
1000;SDS011;489;47.806;12.858;2022-11-20T04:12:09;1.90;;;1.70;;
1000;SDS011;489;47.806;12.858;2022-11-20T04:14:12;1.73;;;1.63;;
1000;SDS011;489;47.806;12.858;2022-11-20T04:16:15;2.00;;;1.80;;
1000;SDS011;489;47.806;12.858;2022-11-20T04:18:19;2.07;;;1.87;;
1000;SDS011;489;47.806;12.858;2022-11-20T04:20:20;1.90;;;1.80;;
1000;SDS011;489;47.806;12.858;2022-11-20T04:22:22;1.90;;;1.70;;
1000;SDS011;489;47.806;12.858;2022-11-20T04:24:24;2.17;;;1.90;;
1000;SDS011;489;47.806;12.858;2022-11-20T04:26:26;4.80;;;2.20;;
1000;SDS011;489;47.806;12.858;2022-11-20T04:28:29;1.90;;;1.80;;
1000;SDS011;489;47.806;12.858;2022-11-20T04:30:30;2.30;;;1.80;;
1000;SDS011;489;47.806;12.858;2022-11-20T04:32:32;1.77;;;1.67;;
1000;SDS011;489;47.806;12.858;2022-11-20T04:34:35;3.00;;;1.87;;
1000;SDS011;489;47.806;12.858;2022-11-20T04:36:37;1.93;;;1.73;;
1000;SDS011;489;47.806;12.858;2022-11-20T04:38:39;4.03;;;2.20;;
1000;SDS011;489;47.806;12.858;2022-11-20T04:40:41;2.30;;;2.00;;
1000;SDS011;489;47.806;12.858;2022-11-20T04:42:43;2.90;;;2.70;;
1000;SDS011;489;47.806;12.858;2022-11-20T04:44:45;2.00;;;1.90;;
1000;SDS011;489;47.806;12.858;2022-11-20T04:46:46;2.00;;;1.80;;
1000;SDS011;489;47.806;12.858;2022-11-20T04:48:48;2.73;;;2.20;;
1000;SDS011;489;47.806;12.858;2022-11-20T04:50:51;3.30;;;3.00;;
1000;SDS011;489;47.806;12.858;2022-11-20T04:52:53;5.50;;;4.27;;
1000;SDS011;489;47.806;12.858;2022-11-20T04:54:55;4.90;;;4.23;;
1000;SDS011;489;47.806;12.858;2022-11-20T04:56:57;21.43;;;12.87;;
1000;SDS011;489;47.806;12.858;2022-11-20T04:58:59;12.87;;;8.20;;
1000;SDS011;489;47.806;12.858;2022-11-20T05:01:02;15.97;;;9.67;;
1000;SDS011;489;47.806;12.858;2022-11-20T05:03:04;8.73;;;6.10;;
1000;SDS011;489;47.806;12.858;2022-11-20T05:05:06;7.40;;;5.00;;
1000;SDS011;489;47.806;12.858;2022-11-20T05:07:10;4.07;;;2.70;;
1000;SDS011;489;47.806;12.858;2022-11-20T05:09:11;5.63;;;4.40;;
1000;SDS011;489;47.806;12.858;2022-11-20T05:11:14;4.60;;;3.17;;
1000;SDS011;489;47.806;12.858;2022-11-20T05:13:16;3.63;;;2.93;;
1000;SDS011;489;47.806;12.858;2022-11-20T05:15:18;4.13;;;3.17;;
1000;SDS011;489;47.806;12.858;2022-11-20T05:17:20;3.23;;;2.70;;
1000;SDS011;489;47.806;12.858;2022-11-20T05:19:22;3.80;;;2.67;;
1000;SDS011;489;47.806;12.858;2022-11-20T05:21:23;8.60;;;5.40;;
1000;SDS011;489;47.806;12.858;2022-11-20T05:23:27;5.87;;;5.00;;
1000;SDS011;489;47.806;12.858;2022-11-20T05:25:30;6.73;;;4.93;;
1000;SDS011;489;47.806;12.858;2022-11-20T05:27:31;2.40;;;2.10;;
1000;SDS011;489;47.806;12.858;2022-11-20T05:29:33;2.20;;;2.00;;
1000;SDS011;489;47.806;12.858;2022-11-20T05:31:35;2.30;;;2.10;;
1000;SDS011;489;47.806;12.858;2022-11-20T05:33:39;2.53;;;2.00;;
1000;SDS011;489;47.806;12.858;2022-11-20T05:35:41;2.33;;;1.93;;
1000;SDS011;489;47.806;12.858;2022-11-20T05:37:43;3.57;;;3.03;;
1000;SDS011;489;47.806;12.858;2022-11-20T05:39:46;3.67;;;3.20;;
1000;SDS011;489;47.806;12.858;2022-11-20T05:41:48;2.00;;;1.80;;
1000;SDS011;489;47.806;12.858;2022-11-20T05:44:10;2.83;;;2.57;;
1000;SDS011;489;47.806;12.858;2022-11-20T05:46:13;2.90;;;2.53;;
1000;SDS011;489;47.806;12.858;2022-11-20T05:48:15;4.20;;;3.33;;
1000;SDS011;489;47.806;12.858;2022-11-20T05:50:17;2.10;;;1.80;;
1000;SDS011;489;47.806;12.858;2022-11-20T05:52:19;1.70;;;1.50;;
1000;SDS011;489;47.806;12.858;2022-11-20T05:54:21;2.57;;;2.00;;
1000;SDS011;489;47.806;12.858;2022-11-20T05:56:24;2.07;;;1.87;;
1000;SDS011;489;47.806;12.858;2022-11-20T05:58:26;1.40;;;1.30;;
1000;SDS011;489;47.806;12.858;2022-11-20T06:00:28;1.83;;;1.30;;
1000;SDS011;489;47.806;12.858;2022-11-20T06:02:29;1.70;;;1.60;;
1000;SDS011;489;47.806;12.858;2022-11-20T06:04:31;1.77;;;1.50;;
1000;SDS011;489;47.806;12.858;2022-11-20T06:06:33;2.87;;;2.10;;
1000;SDS011;489;47.806;12.858;2022-11-20T06:08:35;2.60;;;2.20;;
1000;SDS011;489;47.806;12.858;2022-11-20T06:10:36;1.60;;;1.50;;
1000;SDS011;489;47.806;12.858;2022-11-20T06:12:39;3.33;;;2.80;;
1000;SDS011;489;47.806;12.858;2022-11-20T06:14:41;2.63;;;2.43;;
1000;SDS011;489;47.806;12.858;2022-11-20T06:16:43;2.00;;;1.80;;
1000;SDS011;489;47.806;12.858;2022-11-20T06:18:45;3.60;;;2.00;;
1000;SDS011;489;47.806;12.858;2022-11-20T06:20:47;2.17;;;1.90;;
1000;SDS011;489;47.806;12.858;2022-11-20T06:22:48;2.17;;;2.00;;
1000;SDS011;489;47.806;12.858;2022-11-20T06:24:50;1.80;;;1.67;;
1000;SDS011;489;47.806;12.858;2022-11-20T06:26:52;2.20;;;2.10;;
1000;SDS011;489;47.806;12.858;2022-11-20T06:28:55;3.10;;;2.20;;
1000;SDS011;489;47.806;12.858;2022-11-20T06:30:57;1.90;;;1.70;;
1000;SDS011;489;47.806;12.858;2022-11-20T06:32:58;1.50;;;1.40;;
1000;SDS011;489;47.806;12.858;2022-11-20T06:35:00;2.23;;;1.67;;
1000;SDS011;489;47.806;12.858;2022-11-20T06:37:02;1.90;;;1.70;;
1000;SDS011;489;47.806;12.858;2022-11-20T06:39:03;8.70;;;5.47;;
1000;SDS011;489;47.806;12.858;2022-11-20T06:41:05;2.90;;;2.20;;
1000;SDS011;489;47.806;12.858;2022-11-20T06:43:07;6.60;;;4.97;;
1000;SDS011;489;47.806;12.858;2022-11-20T06:45:11;2.90;;;2.60;;
1000;SDS011;489;47.806;12.858;2022-11-20T06:47:12;1.80;;;1.70;;
1000;SDS011;489;47.806;12.858;2022-11-20T06:49:14;1.70;;;1.50;;
1000;SDS011;489;47.806;12.858;2022-11-20T06:51:16;2.30;;;2.10;;
1000;SDS011;489;47.806;12.858;2022-11-20T06:53:18;2.00;;;1.90;;
1000;SDS011;489;47.806;12.858;2022-11-20T06:55:19;1.70;;;1.60;;
1000;SDS011;489;47.806;12.858;2022-11-20T06:57:21;1.50;;;1.40;;
1000;SDS011;489;47.806;12.858;2022-11-20T06:59:23;2.30;;;1.60;;
1000;SDS011;489;47.806;12.858;2022-11-20T07:01:26;2.10;;;1.80;;
1000;SDS011;489;47.806;12.858;2022-11-20T07:03:28;2.70;;;2.50;;
1000;SDS011;489;47.806;12.858;2022-11-20T07:05:30;2.67;;;2.47;;
1000;SDS011;489;47.806;12.858;2022-11-20T07:07:31;1.93;;;1.50;;
1000;SDS011;489;47.806;12.858;2022-11-20T07:09:33;1.63;;;1.53;;
1000;SDS011;489;47.806;12.858;2022-11-20T07:11:35;1.83;;;1.67;;
1000;SDS011;489;47.806;12.858;2022-11-20T07:13:36;1.40;;;1.30;;
1000;SDS011;489;47.806;12.858;2022-11-20T07:15:38;1.40;;;1.30;;
1000;SDS011;489;47.806;12.858;2022-11-20T07:17:41;1.37;;;1.27;;
1000;SDS011;489;47.806;12.858;2022-11-20T07:19:43;1.70;;;1.60;;
1000;SDS011;489;47.806;12.858;2022-11-20T07:21:45;2.43;;;2.00;;
1000;SDS011;489;47.806;12.858;2022-11-20T07:23:46;2.03;;;1.50;;
1000;SDS011;489;47.806;12.858;2022-11-20T07:25:48;1.73;;;1.50;;
1000;SDS011;489;47.806;12.858;2022-11-20T07:27:50;1.30;;;1.20;;
1000;SDS011;489;47.806;12.858;2022-11-20T07:29:52;1.50;;;1.40;;
1000;SDS011;489;47.806;12.858;2022-11-20T07:31:53;2.27;;;1.87;;
1000;SDS011;489;47.806;12.858;2022-11-20T07:33:57;3.00;;;1.87;;
1000;SDS011;489;47.806;12.858;2022-11-20T07:35:59;2.30;;;2.10;;
1000;SDS011;489;47.806;12.858;2022-11-20T07:38:01;2.03;;;1.70;;
1000;SDS011;489;47.806;12.858;2022-11-20T07:40:03;1.93;;;1.40;;
1000;SDS011;489;47.806;12.858;2022-11-20T07:42:05;2.13;;;2.03;;
1000;SDS011;489;47.806;12.858;2022-11-20T07:44:07;1.30;;;1.20;;
1000;SDS011;489;47.806;12.858;2022-11-20T07:46:09;1.70;;;1.60;;
1000;SDS011;489;47.806;12.858;2022-11-20T07:48:11;1.50;;;1.40;;
1000;SDS011;489;47.806;12.858;2022-11-20T07:50:14;1.30;;;1.20;;
1000;SDS011;489;47.806;12.858;2022-11-20T07:52:16;1.60;;;1.43;;
1000;SDS011;489;47.806;12.858;2022-11-20T07:54:18;2.57;;;2.10;;
1000;SDS011;489;47.806;12.858;2022-11-20T07:56:19;2.10;;;1.50;;
1000;SDS011;489;47.806;12.858;2022-11-20T07:58:21;1.43;;;1.33;;
1000;SDS011;489;47.806;12.858;2022-11-20T08:00:23;1.30;;;1.20;;
1000;SDS011;489;47.806;12.858;2022-11-20T08:02:25;1.50;;;1.40;;
1000;SDS011;489;47.806;12.858;2022-11-20T08:04:26;2.00;;;1.67;;
1000;SDS011;489;47.806;12.858;2022-11-20T08:06:30;1.40;;;1.30;;
1000;SDS011;489;47.806;12.858;2022-11-20T08:08:32;1.53;;;1.43;;
1000;SDS011;489;47.806;12.858;2022-11-20T08:10:33;2.47;;;1.40;;
1000;SDS011;489;47.806;12.858;2022-11-20T08:12:35;1.50;;;1.40;;
1000;SDS011;489;47.806;12.858;2022-11-20T08:14:54;1.90;;;1.70;;
1000;SDS011;489;47.806;12.858;2022-11-20T08:16:58;1.57;;;1.43;;
1000;SDS011;489;47.806;12.858;2022-11-20T08:19:00;1.30;;;1.00;;
1000;SDS011;489;47.806;12.858;2022-11-20T08:21:02;2.27;;;2.07;;
1000;SDS011;489;47.806;12.858;2022-11-20T08:23:06;3.23;;;2.00;;
1000;SDS011;489;47.806;12.858;2022-11-20T08:25:08;1.70;;;1.60;;
1000;SDS011;489;47.806;12.858;2022-11-20T08:27:10;1.97;;;1.70;;
1000;SDS011;489;47.806;12.858;2022-11-20T08:29:12;3.10;;;2.03;;
1000;SDS011;489;47.806;12.858;2022-11-20T08:31:13;1.63;;;1.53;;
1000;SDS011;489;47.806;12.858;2022-11-20T08:33:15;1.87;;;1.73;;
1000;SDS011;489;47.806;12.858;2022-11-20T08:35:17;1.57;;;1.47;;
1000;SDS011;489;47.806;12.858;2022-11-20T08:37:19;1.70;;;1.60;;
1000;SDS011;489;47.806;12.858;2022-11-20T08:39:22;2.00;;;1.60;;
1000;SDS011;489;47.806;12.858;2022-11-20T08:41:24;2.63;;;1.97;;
1000;SDS011;489;47.806;12.858;2022-11-20T08:43:27;2.57;;;1.80;;
1000;SDS011;489;47.806;12.858;2022-11-20T08:45:28;2.00;;;1.60;;
1000;SDS011;489;47.806;12.858;2022-11-20T08:47:30;3.37;;;1.60;;
1000;SDS011;489;47.806;12.858;2022-11-20T08:49:32;2.40;;;1.70;;
1000;SDS011;489;47.806;12.858;2022-11-20T08:51:34;1.23;;;1.13;;
1000;SDS011;489;47.806;12.858;2022-11-20T08:53:36;1.70;;;1.60;;
1000;SDS011;489;47.806;12.858;2022-11-20T08:55:39;1.50;;;1.17;;
1000;SDS011;489;47.806;12.858;2022-11-20T08:57:40;1.77;;;1.13;;
1000;SDS011;489;47.806;12.858;2022-11-20T08:59:42;0.90;;;0.90;;
1000;SDS011;489;47.806;12.858;2022-11-20T09:01:44;0.70;;;0.70;;
1000;SDS011;489;47.806;12.858;2022-11-20T09:03:45;1.13;;;1.03;;
1000;SDS011;489;47.806;12.858;2022-11-20T09:05:47;1.87;;;1.20;;
1000;SDS011;489;47.806;12.858;2022-11-20T09:07:49;1.20;;;1.10;;
1000;SDS011;489;47.806;12.858;2022-11-20T09:09:51;0.90;;;0.90;;
1000;SDS011;489;47.806;12.858;2022-11-20T09:11:54;1.60;;;1.00;;
1000;SDS011;489;47.806;12.858;2022-11-20T09:13:56;1.00;;;1.00;;
1000;SDS011;489;47.806;12.858;2022-11-20T09:15:58;2.53;;;1.13;;
1000;SDS011;489;47.806;12.858;2022-11-20T09:18:01;1.20;;;1.10;;
1000;SDS011;489;47.806;12.858;2022-11-20T09:20:04;1.17;;;1.03;;
1000;SDS011;489;47.806;12.858;2022-11-20T09:22:06;1.47;;;1.27;;
1000;SDS011;489;47.806;12.858;2022-11-20T09:24:08;0.97;;;0.90;;
1000;SDS011;489;47.806;12.858;2022-11-20T09:26:11;0.90;;;0.70;;
1000;SDS011;489;47.806;12.858;2022-11-20T09:28:14;0.63;;;0.60;;
1000;SDS011;489;47.806;12.858;2022-11-20T09:30:18;0.53;;;0.53;;
1000;SDS011;489;47.806;12.858;2022-11-20T09:32:20;1.23;;;0.80;;
1000;SDS011;489;47.806;12.858;2022-11-20T09:34:21;0.70;;;0.70;;
1000;SDS011;489;47.806;12.858;2022-11-20T09:36:23;0.83;;;0.77;;
1000;SDS011;489;47.806;12.858;2022-11-20T09:38:25;1.03;;;0.80;;
1000;SDS011;489;47.806;12.858;2022-11-20T09:40:27;1.03;;;0.87;;
1000;SDS011;489;47.806;12.858;2022-11-20T09:42:32;0.70;;;0.70;;
1000;SDS011;489;47.806;12.858;2022-11-20T09:47:05;1.20;;;1.00;;
1000;SDS011;489;47.806;12.858;2022-11-20T09:49:17;1.80;;;1.40;;
1000;SDS011;489;47.806;12.858;2022-11-20T09:51:28;0.90;;;0.87;;
1000;SDS011;489;47.806;12.858;2022-11-20T09:53:37;1.00;;;0.90;;
1000;SDS011;489;47.806;12.858;2022-11-20T09:55:47;1.00;;;0.80;;
1000;SDS011;489;47.806;12.858;2022-11-20T09:57:50;1.17;;;1.00;;
1000;SDS011;489;47.806;12.858;2022-11-20T09:59:53;0.90;;;0.90;;
1000;SDS011;489;47.806;12.858;2022-11-20T10:01:59;5.17;;;2.47;;
1000;SDS011;489;47.806;12.858;2022-11-20T10:04:02;1.07;;;0.97;;
1000;SDS011;489;47.806;12.858;2022-11-20T10:06:05;1.40;;;1.30;;
1000;SDS011;489;47.806;12.858;2022-11-20T10:08:14;0.80;;;0.60;;
1000;SDS011;489;47.806;12.858;2022-11-20T10:10:20;1.03;;;0.80;;
1000;SDS011;489;47.806;12.858;2022-11-20T10:12:38;0.53;;;0.50;;
1000;SDS011;489;47.806;12.858;2022-11-20T10:14:57;0.60;;;0.60;;
1000;SDS011;489;47.806;12.858;2022-11-20T10:17:09;1.30;;;0.90;;
1000;SDS011;489;47.806;12.858;2022-11-20T10:19:20;1.10;;;1.00;;
1000;SDS011;489;47.806;12.858;2022-11-20T10:21:33;1.57;;;0.80;;
1000;SDS011;489;47.806;12.858;2022-11-20T10:23:45;1.10;;;0.87;;
1000;SDS011;489;47.806;12.858;2022-11-20T10:25:54;0.80;;;0.80;;
1000;SDS011;489;47.806;12.858;2022-11-20T10:28:16;0.97;;;0.80;;
1000;SDS011;489;47.806;12.858;2022-11-20T10:30:22;0.90;;;0.90;;
1000;SDS011;489;47.806;12.858;2022-11-20T10:32:28;0.60;;;0.60;;
1000;SDS011;489;47.806;12.858;2022-11-20T10:34:35;0.60;;;0.60;;
1000;SDS011;489;47.806;12.858;2022-11-20T10:36:44;1.43;;;1.17;;
1000;SDS011;489;47.806;12.858;2022-11-20T10:38:51;0.73;;;0.70;;
1000;SDS011;489;47.806;12.858;2022-11-20T10:40:56;1.33;;;0.80;;
1000;SDS011;489;47.806;12.858;2022-11-20T10:43:21;0.90;;;0.87;;
1000;SDS011;489;47.806;12.858;2022-11-20T10:45:32;0.73;;;0.60;;
1000;SDS011;489;47.806;12.858;2022-11-20T10:47:46;0.50;;;0.50;;
1000;SDS011;489;47.806;12.858;2022-11-20T10:49:48;1.57;;;0.80;;
1000;SDS011;489;47.806;12.858;2022-11-20T10:51:55;1.13;;;1.03;;
1000;SDS011;489;47.806;12.858;2022-11-20T10:54:09;0.60;;;0.60;;
1000;SDS011;489;47.806;12.858;2022-11-20T10:56:17;0.57;;;0.50;;
1000;SDS011;489;47.806;12.858;2022-11-20T10:58:22;0.70;;;0.70;;
1000;SDS011;489;47.806;12.858;2022-11-20T11:00:30;1.13;;;0.60;;
1000;SDS011;489;47.806;12.858;2022-11-20T11:02:33;0.70;;;0.70;;
1000;SDS011;489;47.806;12.858;2022-11-20T11:04:38;1.03;;;0.70;;
1000;SDS011;489;47.806;12.858;2022-11-20T11:06:43;0.60;;;0.50;;
1000;SDS011;489;47.806;12.858;2022-11-20T11:08:48;2.03;;;1.10;;
1000;SDS011;489;47.806;12.858;2022-11-20T11:10:51;0.50;;;0.50;;
1000;SDS011;489;47.806;12.858;2022-11-20T11:12:54;0.73;;;0.63;;
1000;SDS011;489;47.806;12.858;2022-11-20T11:14:56;0.80;;;0.80;;
1000;SDS011;489;47.806;12.858;2022-11-20T11:16:58;0.60;;;0.60;;
1000;SDS011;489;47.806;12.858;2022-11-20T11:19:04;0.80;;;0.60;;
1000;SDS011;489;47.806;12.858;2022-11-20T11:21:08;0.73;;;0.50;;
1000;SDS011;489;47.806;12.858;2022-11-20T11:23:10;0.70;;;0.70;;
1000;SDS011;489;47.806;12.858;2022-11-20T11:25:28;0.90;;;0.90;;
1000;SDS011;489;47.806;12.858;2022-11-20T11:27:33;0.70;;;0.67;;
1000;SDS011;489;47.806;12.858;2022-11-20T11:29:35;0.90;;;0.60;;
1000;SDS011;489;47.806;12.858;2022-11-20T11:31:37;1.90;;;1.47;;
1000;SDS011;489;47.806;12.858;2022-11-20T11:33:38;5.00;;;4.00;;
1000;SDS011;489;47.806;12.858;2022-11-20T11:35:44;4.37;;;4.07;;
1000;SDS011;489;47.806;12.858;2022-11-20T11:37:48;3.10;;;2.20;;
1000;SDS011;489;47.806;12.858;2022-11-20T11:39:51;1.37;;;0.63;;
1000;SDS011;489;47.806;12.858;2022-11-20T11:41:52;1.57;;;0.80;;
1000;SDS011;489;47.806;12.858;2022-11-20T11:43:55;1.33;;;1.00;;
1000;SDS011;489;47.806;12.858;2022-11-20T11:46:26;0.57;;;0.57;;
1000;SDS011;489;47.806;12.858;2022-11-20T11:48:29;1.00;;;0.90;;
1000;SDS011;489;47.806;12.858;2022-11-20T11:50:31;1.00;;;0.87;;
1000;SDS011;489;47.806;12.858;2022-11-20T11:52:32;2.90;;;2.57;;
1000;SDS011;489;47.806;12.858;2022-11-20T11:54:40;1.80;;;1.50;;
1000;SDS011;489;47.806;12.858;2022-11-20T11:56:46;0.73;;;0.70;;
1000;SDS011;489;47.806;12.858;2022-11-20T11:58:48;0.90;;;0.80;;
1000;SDS011;489;47.806;12.858;2022-11-20T12:00:54;2.47;;;1.40;;
1000;SDS011;489;47.806;12.858;2022-11-20T12:03:00;1.70;;;1.47;;
1000;SDS011;489;47.806;12.858;2022-11-20T12:05:10;1.40;;;1.10;;
1000;SDS011;489;47.806;12.858;2022-11-20T12:07:19;0.50;;;0.50;;
1000;SDS011;489;47.806;12.858;2022-11-20T12:09:26;1.03;;;0.67;;
1000;SDS011;489;47.806;12.858;2022-11-20T12:11:38;2.20;;;0.80;;
1000;SDS011;489;47.806;12.858;2022-11-20T12:13:47;1.27;;;1.17;;
1000;SDS011;489;47.806;12.858;2022-11-20T12:15:52;0.80;;;0.80;;
1000;SDS011;489;47.806;12.858;2022-11-20T12:17:54;2.90;;;1.70;;
1000;SDS011;489;47.806;12.858;2022-11-20T12:19:56;1.50;;;1.20;;
1000;SDS011;489;47.806;12.858;2022-11-20T12:21:59;1.33;;;0.93;;
1000;SDS011;489;47.806;12.858;2022-11-20T12:24:08;0.83;;;0.80;;
1000;SDS011;489;47.806;12.858;2022-11-20T12:26:27;2.77;;;1.80;;
1000;SDS011;489;47.806;12.858;2022-11-20T12:28:41;2.10;;;1.60;;
1000;SDS011;489;47.806;12.858;2022-11-20T12:30:49;2.23;;;1.00;;
1000;SDS011;489;47.806;12.858;2022-11-20T12:35:52;2.10;;;1.60;;
1000;SDS011;489;47.806;12.858;2022-11-20T12:45:17;1.37;;;0.97;;
1000;SDS011;489;47.806;12.858;2022-11-20T12:47:29;1.10;;;0.60;;
1000;SDS011;489;47.806;12.858;2022-11-20T12:49:37;0.60;;;0.53;;
1000;SDS011;489;47.806;12.858;2022-11-20T12:51:44;0.60;;;0.60;;
1000;SDS011;489;47.806;12.858;2022-11-20T12:54:04;2.17;;;1.13;;
1000;SDS011;489;47.806;12.858;2022-11-20T12:56:29;2.87;;;1.70;;
1000;SDS011;489;47.806;12.858;2022-11-20T12:58:36;6.77;;;5.50;;
1000;SDS011;489;47.806;12.858;2022-11-20T13:00:47;2.20;;;2.03;;